Time;durP1;ratioP1;P1;durP2;ratioP2;P2;SDS_P1;SDS_P2;PMS_P1;PMS_P2;Temp;Humidity;BMP_temperature;BMP_pressure;BME280_temperature;BME280_humidity;BME280_pressure;Samples;Min_cycle;Max_cycle;Signal;HPM_P1;HPM_P2
2021/08/03 00:02:08;;;;;;;6.17;3.13;;;10.80;99.90;;;11.19;100.00;95133.00;2154580;57;26698;-56
2021/08/03 00:04:59;;;;;;;5.03;3.33;;;10.80;99.90;;;11.23;100.00;95123.00;2154503;57;26839;-55
2021/08/03 00:07:49;;;;;;;4.17;3.07;;;10.90;99.90;;;11.40;100.00;95121.00;2365267;56;26554;-56
2021/08/03 00:10:36;;;;;;;5.53;3.33;;;10.90;99.90;;;11.45;100.00;95111.00;2153412;57;26859;-55
2021/08/03 00:13:25;;;;;;;3.33;3.03;;;10.90;99.90;;;11.37;100.00;95109.00;2364678;56;26291;-54
2021/08/03 00:16:13;;;;;;;4.07;3.10;;;10.80;99.90;;;11.30;100.00;95105.00;2363749;56;26117;-55
2021/08/03 00:18:59;;;;;;;4.80;3.60;;;10.80;99.90;;;11.28;100.00;95106.00;2364799;56;26656;-54
2021/08/03 00:21:46;;;;;;;6.27;3.70;;;10.80;99.90;;;11.22;100.00;95122.00;2152682;57;26737;-56
2021/08/03 00:27:29;;;;;;;6.57;4.70;;;10.70;99.90;;;11.54;100.00;95115.00;2486839;53;34264;-55
2021/08/03 00:30:15;;;;;;;6.73;4.63;;;11.10;99.90;;;11.49;100.00;95125.00;2251260;53;26610;-58
2021/08/03 00:35:59;;;;;;;5.37;4.17;;;11.20;99.90;;;11.72;100.00;95108.00;2485785;52;33695;-56
2021/08/03 00:38:46;;;;;;;5.93;4.70;;;11.20;99.90;;;11.60;100.00;95128.00;2466758;54;26665;-56
2021/08/03 00:41:40;;;;;;;4.60;3.97;;;11.20;99.90;;;11.58;100.00;95130.00;2238313;55;26914;-57
2021/08/03 00:44:42;;;;;;;6.43;3.73;;;11.20;99.90;;;11.61;100.00;95129.00;2244872;54;26934;-56
2021/08/03 00:47:29;;;;;;;5.60;3.93;;;11.10;99.90;;;11.48;100.00;95120.00;2498800;54;27123;-56
2021/08/03 00:50:15;;;;;;;7.40;3.87;;;11.10;99.90;;;11.55;100.00;95117.00;2211590;56;26149;-54
2021/08/03 00:53:02;;;;;;;4.10;3.70;;;11.10;99.90;;;11.53;100.00;95111.00;2436032;55;26706;-55
2021/08/03 00:55:51;;;;;;;8.73;3.80;;;11.00;99.90;;;11.30;100.00;95107.00;2212914;55;26605;-56
2021/08/03 01:01:37;;;;;;;8.53;4.27;;;11.00;99.90;;;11.51;100.00;95089.00;2438442;54;33786;-54
2021/08/03 01:04:23;;;;;;;5.87;4.30;;;11.00;99.90;;;11.46;100.00;95107.00;2212995;54;27274;-55
2021/08/03 01:07:23;;;;;;;4.33;3.93;;;11.00;99.90;;;11.39;100.00;95114.00;2207861;55;26726;-56
2021/08/03 01:13:41;;;;;;;4.40;3.70;;;10.90;99.90;;;11.45;100.00;95097.00;2391817;55;33819;-56
2021/08/03 01:19:42;;;;;;;5.43;4.00;;;10.90;99.90;;;11.45;100.00;95085.00;2498874;53;34442;-55
2021/08/03 01:23:10;;;;;;;4.63;3.80;;;11.00;99.90;;;11.44;100.00;95104.00;2238564;55;26709;-55
2021/08/03 01:26:23;;;;;;;4.63;3.90;;;11.00;99.90;;;11.41;100.00;95104.00;2212937;55;26981;-54
2021/08/03 01:29:11;;;;;;;5.60;4.03;;;11.10;99.90;;;11.55;100.00;95106.00;2213844;55;26698;-56
2021/08/03 01:32:03;;;;;;;6.43;4.20;;;11.10;99.90;;;11.50;100.00;95105.00;2437028;54;26736;-55
2021/08/03 01:34:51;;;;;;;4.97;3.53;;;11.10;99.90;;;11.50;100.00;95100.00;2214588;54;27189;-56
2021/08/03 01:37:37;;;;;;;4.80;3.90;;;11.10;99.90;;;11.49;100.00;95094.00;2437026;54;26733;-56
2021/08/03 01:40:25;;;;;;;5.07;4.17;;;11.10;99.90;;;11.55;100.00;95096.00;2437422;54;27409;-56
2021/08/03 01:43:11;;;;;;;7.93;3.80;;;11.10;99.90;;;11.39;100.00;95095.00;2213867;54;27558;-55
2021/08/03 01:45:58;;;;;;;4.83;3.83;;;11.00;99.90;;;11.29;100.00;95089.00;2436396;54;26565;-56
2021/08/03 01:48:48;;;;;;;4.67;3.50;;;10.90;99.90;;;11.25;100.00;95092.00;2206786;54;26592;-55
2021/08/03 01:51:34;;;;;;;4.20;3.67;;;10.80;99.90;;;11.16;100.00;95093.00;2473141;54;27099;-56
2021/08/03 01:54:23;;;;;;;4.50;3.73;;;10.70;99.90;;;11.14;100.00;95088.00;2243695;54;26634;-56
2021/08/03 01:57:12;;;;;;;4.23;3.83;;;10.70;99.90;;;11.23;100.00;95094.00;2473320;54;26787;-55
2021/08/03 02:00:00;;;;;;;7.97;3.90;;;10.70;99.90;;;11.07;100.00;95091.00;2244422;54;26911;-56
2021/08/03 02:02:46;;;;;;;4.53;3.10;;;10.60;99.90;;;10.92;100.00;95086.00;2246340;54;27048;-55
2021/08/03 02:05:33;;;;;;;5.00;3.60;;;10.50;99.90;;;10.90;100.00;95076.00;2246173;54;27381;-55
2021/08/03 02:08:21;;;;;;;7.50;3.40;;;10.70;99.90;;;11.11;100.00;95080.00;2475647;54;26684;-54
2021/08/03 02:11:07;;;;;;;4.13;3.57;;;10.70;99.90;;;11.12;100.00;95074.00;2245691;54;27467;-55
2021/08/03 02:13:54;;;;;;;4.10;3.40;;;10.70;99.90;;;11.11;100.00;95075.00;2476016;54;26774;-55
2021/08/03 02:16:40;;;;;;;6.23;3.60;;;10.60;99.90;;;11.01;100.00;95069.00;2246488;54;26829;-56
2021/08/03 02:19:27;;;;;;;3.60;3.20;;;10.60;99.90;;;11.07;100.00;95068.00;2476086;54;27032;-56
2021/08/03 02:25:14;;;;;;;5.47;3.97;;;10.90;99.90;;;11.60;100.00;95049.00;2393708;55;33775;-55
2021/08/03 02:28:02;;;;;;;5.37;3.57;;;11.00;99.90;;;11.48;100.00;95068.00;2162521;57;27397;-58
2021/08/03 02:30:52;;;;;;;4.40;3.47;;;10.90;99.90;;;11.32;100.00;95056.00;2375337;56;26755;-54
2021/08/03 02:33:48;;;;;;;4.70;3.60;;;10.80;99.90;;;11.31;100.00;95059.00;2148862;56;26697;-53
2021/08/03 02:39:37;;;;;;;6.60;3.70;;;10.80;99.90;;;11.31;100.00;95035.00;2505692;52;33934;-53
2021/08/03 02:42:24;;;;;;;4.97;3.47;;;10.80;99.90;;;11.20;100.00;95052.00;2246496;53;26653;-55
2021/08/03 02:45:16;;;;;;;4.90;3.70;;;10.90;99.90;;;11.29;100.00;95058.00;2500010;53;26732;-54
2021/08/03 02:48:11;;;;;;;4.27;3.87;;;11.00;99.90;;;11.50;100.00;95067.00;2505245;52;26885;-55
2021/08/03 02:50:58;;;;;;;5.33;3.13;;;11.00;99.90;;;11.50;100.00;95072.00;2292153;53;26733;-55
2021/08/03 02:53:51;;;;;;;4.90;3.50;;;11.00;99.90;;;11.44;100.00;95061.00;2531980;52;27256;-55
2021/08/03 02:56:38;;;;;;;3.97;3.20;;;11.00;99.90;;;11.40;100.00;95065.00;2292395;53;26704;-55
2021/08/03 02:59:28;;;;;;;5.40;3.37;;;11.00;99.90;;;11.50;100.00;95056.00;2531844;52;27339;-54
2021/08/03 03:02:16;;;;;;;7.83;3.73;;;11.10;99.90;;;11.71;100.00;95061.00;2288212;53;26508;-53
2021/08/03 03:05:10;;;;;;;5.10;3.37;;;11.10;99.90;;;11.55;100.00;95057.00;2292062;53;27126;-54
2021/08/03 03:08:05;;;;;;;6.50;3.70;;;11.10;99.90;;;11.49;100.00;95051.00;2291192;53;27471;-54
2021/08/03 03:10:56;;;;;;;4.40;3.80;;;11.00;99.90;;;11.36;100.00;95052.00;2532290;52;27364;-54
2021/08/03 03:13:49;;;;;;;4.33;3.33;;;11.00;99.90;;;11.46;100.00;95065.00;2291111;53;26846;-54
2021/08/03 03:16:40;;;;;;;5.60;3.70;;;11.00;99.90;;;11.42;100.00;95058.00;2531492;52;26496;-54
2021/08/03 03:19:27;;;;;;;4.30;3.63;;;11.00;99.90;;;11.36;100.00;95067.00;2531028;52;27239;-54
2021/08/03 03:22:15;;;;;;;4.97;4.00;;;11.00;99.90;;;11.44;100.00;95057.00;2292747;53;26636;-55
2021/08/03 03:25:03;;;;;;;4.00;3.60;;;11.00;99.90;;;11.52;100.00;95059.00;2291699;53;27217;-55
2021/08/03 03:30:52;;;;;;;3.40;3.10;;;11.00;99.90;;;11.54;100.00;95030.00;2380939;55;33830;-54
2021/08/03 03:33:43;;;;;;;8.20;3.40;;;11.00;99.90;;;11.42;100.00;95056.00;2131281;58;26294;-54
2021/08/03 03:36:32;;;;;;;4.07;3.07;;;11.10;99.90;;;11.42;100.00;95056.00;2377056;55;26686;-54
2021/08/03 03:39:19;;;;;;;3.67;3.03;;;11.10;99.90;;;11.56;100.00;95050.00;2185416;56;27170;-55
2021/08/03 03:42:07;;;;;;;4.07;3.10;;;11.10;99.90;;;11.55;100.00;95049.00;2405080;55;26650;-55
2021/08/03 03:44:54;;;;;;;4.90;3.20;;;11.10;99.90;;;11.63;100.00;95053.00;2187409;56;26152;-54
2021/08/03 03:50:49;;;;;;;4.43;3.40;;;11.10;99.90;;;11.54;100.00;95031.00;2414574;54;34027;-53
2021/08/03 03:53:41;;;;;;;4.13;2.97;;;11.00;99.90;;;11.43;100.00;95047.00;2206617;54;26662;-54
2021/08/03 03:56:32;;;;;;;4.57;3.20;;;11.00;99.90;;;11.41;100.00;95051.00;2467550;54;27195;-54
2021/08/03 03:59:21;;;;;;;3.57;3.27;;;11.00;99.90;;;11.35;100.00;95049.00;2205069;55;26157;-55
2021/08/03 04:02:08;;;;;;;7.37;3.20;;;11.00;99.90;;;11.40;100.00;95048.00;2238180;54;26601;-55
2021/08/03 04:04:59;;;;;;;3.50;3.20;;;11.00;99.90;;;11.41;100.00;95051.00;2464995;54;26557;-54
2021/08/03 04:07:49;;;;;;;5.23;3.10;;;10.90;99.90;;;11.30;100.00;95047.00;2238819;54;26373;-54
2021/08/03 04:10:38;;;;;;;3.43;3.10;;;10.90;99.90;;;11.23;100.00;95044.00;2465646;54;26854;-53
2021/08/03 04:13:24;;;;;;;4.20;3.50;;;10.80;99.90;;;11.15;100.00;95042.00;2240142;55;27117;-54
2021/08/03 04:16:11;;;;;;;3.97;3.53;;;10.80;99.90;;;11.11;100.00;95038.00;2240091;55;26897;-54
2021/08/03 04:18:57;;;;;;;5.43;3.43;;;10.70;99.90;;;11.11;100.00;95038.00;2495744;54;26636;-55
2021/08/03 04:21:45;;;;;;;5.50;3.60;;;10.70;99.90;;;11.13;100.00;95036.00;2268921;55;27435;-54
2021/08/03 04:24:31;;;;;;;6.80;3.10;;;10.70;99.90;;;11.20;100.00;95045.00;2503141;54;27282;-55
2021/08/03 04:27:19;;;;;;;3.93;3.40;;;10.70;99.90;;;11.29;100.00;95035.00;2268875;54;27255;-55
2021/08/03 04:30:09;;;;;;;3.60;3.30;;;10.70;99.90;;;11.17;100.00;95035.00;2503288;54;27221;-55
2021/08/03 04:32:55;;;;;;;5.20;3.00;;;10.70;99.90;;;11.18;100.00;95022.00;2268736;55;26613;-54
2021/08/03 04:35:41;;;;;;;4.80;3.50;;;10.70;99.90;;;11.27;100.00;95026.00;2502885;54;27308;-54
2021/08/03 04:41:24;;;;;;;5.53;3.40;;;10.60;99.90;;;11.21;100.00;94994.00;2429278;54;33846;-54
2021/08/03 04:44:10;;;;;;;3.53;3.03;;;10.60;99.90;;;11.11;100.00;95006.00;2161667;56;26590;-55
2021/08/03 04:46:56;;;;;;;4.77;3.50;;;10.60;99.90;;;11.17;100.00;95002.00;2384452;55;26784;-55
2021/08/03 04:49:43;;;;;;;4.53;3.17;;;10.60;99.90;;;11.21;100.00;94996.00;2165966;57;26175;-54
2021/08/03 04:52:29;;;;;;;3.90;3.20;;;10.60;99.90;;;11.20;100.00;94997.00;2380501;55;26840;-55
2021/08/03 04:55:15;;;;;;;4.33;3.43;;;10.70;99.90;;;11.31;100.00;95002.00;2167738;57;26736;-54
2021/08/03 04:58:02;;;;;;;6.80;3.97;;;10.80;99.90;;;11.42;100.00;94995.00;2167788;56;27295;-55
2021/08/03 05:00:48;;;;;;;7.53;3.47;;;11.00;99.90;;;11.58;100.00;94996.00;2397140;55;26553;-55
2021/08/03 05:03:35;;;;;;;5.07;3.30;;;11.10;99.90;;;11.79;100.00;94992.00;2204859;56;26683;-54
2021/08/03 05:06:21;;;;;;;3.77;3.37;;;11.30;99.90;;;11.94;100.00;94993.00;2434257;55;27170;-55
2021/08/03 05:09:08;;;;;;;5.80;3.63;;;11.40;99.90;;;12.00;100.00;94992.00;2212484;55;27356;-54
2021/08/03 05:11:54;;;;;;;6.03;4.20;;;11.40;99.90;;;12.02;100.00;94996.00;2434864;55;26692;-55
2021/08/03 05:14:40;;;;;;;4.30;3.90;;;11.50;99.90;;;12.12;100.00;94994.00;2212497;56;26638;-54
2021/08/03 05:17:28;;;;;;;5.90;3.30;;;11.60;99.90;;;12.17;100.00;94999.00;2434852;55;26755;-54
2021/08/03 05:20:15;;;;;;;6.23;3.20;;;11.70;99.90;;;12.27;100.00;94989.00;2192375;56;27305;-54
2021/08/03 05:23:01;;;;;;;3.77;2.77;;;11.60;99.90;;;12.17;100.00;94983.00;2191945;56;26204;-55
2021/08/03 05:25:47;;;;;;;3.93;2.90;;;11.60;99.90;;;12.15;100.00;94975.00;2410168;55;26631;-55
2021/08/03 05:28:34;;;;;;;5.97;2.70;;;11.60;99.90;;;12.19;100.00;94973.00;2193045;56;26142;-55
2021/08/03 05:31:20;;;;;;;5.57;3.20;;;11.70;99.90;;;12.18;100.00;94967.00;2409900;55;26254;-55
2021/08/03 05:37:04;;;;;;;3.87;3.20;;;11.70;99.90;;;12.58;100.00;94955.00;2454813;54;34288;-54
2021/08/03 05:39:50;;;;;;;6.37;3.40;;;12.10;99.90;;;12.73;100.00;94976.00;2216715;54;26582;-55
2021/08/03 05:42:37;;;;;;;3.90;3.40;;;12.40;99.90;;;13.20;100.00;94970.00;2441401;54;26155;-55
2021/08/03 05:45:24;;;;;;;3.47;3.00;;;12.70;99.90;;;13.55;100.00;94971.00;2217499;55;26749;-54
2021/08/03 05:48:10;;;;;;;3.03;2.70;;;13.10;99.90;;;13.97;100.00;94966.00;2447289;54;26686;-53
2021/08/03 05:53:53;;;;;;;3.70;2.80;;;13.40;99.90;;;14.76;100.00;94947.00;2387332;55;33839;-54
2021/08/03 05:59:36;;;;;;;4.62;2.75;;;14.20;99.90;;;15.11;100.00;94943.00;2512032;52;34124;-55
2021/08/03 06:02:22;;;;;;;2.53;2.33;;;14.20;99.90;;;14.94;100.00;94953.00;2239459;54;26772;-55
2021/08/03 06:05:11;;;;;;;3.62;2.90;;;14.30;99.90;;;14.96;100.00;94962.00;2239085;54;26604;-55
2021/08/03 06:08:00;;;;;;;3.12;2.65;;;14.20;99.90;;;14.88;100.00;94965.00;2238626;54;26770;-53
2021/08/03 06:10:50;;;;;;;3.80;2.50;;;14.30;99.90;;;15.10;100.00;94966.00;2238388;54;27839;-55
2021/08/03 06:13:38;;;;;;;4.25;2.90;;;14.40;99.90;;;15.09;100.00;94961.00;2239547;54;26835;-54
2021/08/03 06:16:26;;;;;;;3.28;2.55;;;14.30;99.90;;;14.97;100.00;94966.00;2239658;54;26738;-54
2021/08/03 06:19:15;;;;;;;3.08;2.42;;;14.40;99.90;;;15.09;100.00;94967.00;2468141;53;26970;-54
2021/08/03 06:22:02;;;;;;;3.53;2.47;;;14.70;99.90;;;16.32;100.00;94964.00;2240190;54;26588;-54
2021/08/03 06:24:48;;;;;;;2.90;2.40;;;16.30;99.90;;;18.93;100.00;94947.00;2468018;53;26665;-54
2021/08/03 06:27:35;;;;;;;2.22;1.90;;;18.50;99.90;;;22.36;100.00;94939.00;2238380;54;26648;-56
2021/08/03 06:30:22;;;;;;;2.55;1.85;;;20.40;99.90;;;23.92;100.00;94927.00;2238661;54;27317;-56
2021/08/03 06:33:08;;;;;;;3.60;1.80;;;21.10;99.90;;;23.91;100.00;94923.00;2239174;54;26645;-54
2021/08/03 06:35:55;;;;;;;2.40;1.65;;;20.40;99.90;;;21.88;100.00;94926.00;2239046;54;26768;-55
2021/08/03 06:38:41;;;;;;;2.05;1.80;;;20.10;99.90;;;21.38;100.00;94915.00;2238610;54;27496;-55
2021/08/03 06:41:32;;;;;;;2.22;1.62;;;19.50;99.90;;;20.63;100.00;94919.00;2238737;54;26640;-55
2021/08/03 06:44:27;;;;;;;2.12;1.58;;;19.20;99.90;;;20.55;100.00;94919.00;2239724;54;26632;-55
2021/08/03 06:47:15;;;;;;;3.20;1.60;;;19.10;99.90;;;20.22;100.00;94922.00;2239010;54;26868;-55
2021/08/03 06:50:06;;;;;;;3.00;1.60;;;19.40;99.90;;;21.05;100.00;94921.00;2212072;55;27039;-54
2021/08/03 06:52:54;;;;;;;1.70;1.60;;;20.00;99.90;;;22.03;100.00;94907.00;2213003;55;26675;-55
2021/08/03 06:55:46;;;;;;;2.53;1.70;;;20.50;99.90;;;22.77;100.00;94917.00;2211557;55;26551;-55
2021/08/03 06:58:47;;;;;;;1.95;1.70;;;20.70;99.90;;;22.61;100.00;94916.00;2213779;54;27246;-55
2021/08/03 07:01:45;;;;;;;4.00;1.87;;;21.40;99.90;;;23.50;100.00;94921.00;2440986;54;26587;-55
2021/08/03 07:07:45;;;;;;;3.37;1.92;;;20.60;99.90;;;22.50;100.00;94921.00;2407802;54;34267;-55
2021/08/03 07:10:31;;;;;;;2.05;1.80;;;20.60;99.90;;;22.37;100.00;94920.00;2396060;55;27049;-56
2021/08/03 07:13:19;;;;;;;2.42;1.70;;;21.30;99.90;;;23.56;100.00;94912.00;2194146;55;27262;-55
2021/08/03 07:16:06;;;;;;;1.90;1.70;;;21.30;99.90;;;23.18;100.00;94913.00;2402253;55;26621;-56
2021/08/03 07:18:54;;;;;;;3.10;1.80;;;20.80;99.90;;;22.44;100.00;94907.00;2402456;55;26847;-54
2021/08/03 07:21:42;;;;;;;1.87;1.70;;;20.60;99.90;;;22.41;100.00;94910.00;2190624;56;28157;-55
2021/08/03 07:24:29;;;;;;;4.12;1.70;;;20.90;99.90;;;22.93;100.00;94923.00;2403529;55;27291;-55
2021/08/03 07:27:16;;;;;;;2.50;1.80;;;21.90;99.90;;;24.40;100.00;94932.00;2185505;56;27261;-55
2021/08/03 07:30:05;;;;;;;4.80;2.37;;;23.20;99.90;;;25.73;100.00;94938.00;2184360;56;27530;-55
2021/08/03 07:32:52;;;;;;;3.78;2.00;;;22.40;99.90;;;23.19;100.00;94941.00;2194089;56;26765;-55
2021/08/03 07:35:41;;;;;;;3.40;2.28;;;22.90;99.90;;;25.26;100.00;94935.00;2202629;55;26723;-55
2021/08/03 07:38:27;;;;;;;3.25;2.42;;;24.50;99.90;;;27.18;100.00;94916.00;2213705;55;27308;-54
2021/08/03 07:41:13;;;;;;;2.67;2.30;;;25.20;99.90;;;28.12;100.00;94915.00;2212884;55;26762;-55
2021/08/03 07:44:00;;;;;;;4.53;2.10;;;25.20;99.90;;;27.65;95.54;94913.00;2214231;55;27307;-55
2021/08/03 07:46:47;;;;;;;2.80;2.28;;;24.50;99.90;;;26.68;100.00;94920.00;2214751;55;26832;-55
2021/08/03 07:49:33;;;;;;;2.92;2.10;;;24.90;99.90;;;27.76;97.86;94917.00;2211872;55;26737;-56
2021/08/03 07:55:17;;;;;;;2.30;2.00;;;26.70;99.90;;;30.32;88.13;94920.00;2406905;55;32772;-53
2021/08/03 08:01:03;;;;;;;2.35;1.87;;;27.60;99.90;;;29.45;70.19;94905.00;2393369;55;32832;-55
2021/08/03 08:06:45;;;;;;;2.37;1.80;;;26.70;99.90;;;27.99;89.67;94904.00;2467672;54;34152;-55
2021/08/03 08:09:32;;;;;;;2.55;1.70;;;26.70;99.90;;;28.63;77.25;94901.00;2433127;55;27506;-56
2021/08/03 08:12:19;;;;;;;3.08;2.00;;;26.50;99.90;;;28.11;78.53;94903.00;2186292;55;26988;-56
2021/08/03 08:15:07;;;;;;;3.83;1.87;;;27.40;99.90;;;29.24;67.07;94904.00;2186311;55;26767;-54
2021/08/03 08:17:55;;;;;;;2.60;1.83;;;28.10;99.90;;;31.48;81.80;94901.00;2405562;55;25532;-53
2021/08/03 08:20:44;;;;;;;1.70;1.60;;;30.40;99.90;;;34.13;55.83;94914.00;2185595;55;25547;-53
2021/08/03 08:23:31;;;;;;;2.60;1.70;;;31.40;99.90;;;34.94;56.25;94903.00;2210497;55;25149;-53
2021/08/03 08:26:18;;;;;;;1.70;1.60;;;31.00;99.90;;;33.75;50.49;94908.00;2210529;55;25648;-54
2021/08/03 08:29:04;;;;;;;3.25;1.83;;;31.00;99.90;;;33.55;49.11;94907.00;2433887;54;26195;-52
2021/08/03 08:31:51;;;;;;;3.15;1.92;;;29.90;99.90;;;31.58;50.66;94901.00;2210602;55;25720;-54
2021/08/03 08:34:38;;;;;;;2.33;1.80;;;29.30;99.90;;;31.92;54.45;94900.00;2433732;55;25165;-54
2021/08/03 08:37:24;;;;;;;3.12;1.70;;;30.60;99.90;;;34.46;47.25;94903.00;2210334;55;25810;-54
2021/08/03 08:40:16;;;;;;;2.45;1.80;;;31.20;99.90;;;34.21;47.29;94897.00;2433458;54;26183;-54
2021/08/03 08:43:03;;;;;;;2.95;1.90;;;31.50;99.90;;;35.01;43.15;94886.00;2210303;55;25754;-54
2021/08/03 08:45:53;;;;;;;2.42;1.50;;;32.70;99.90;;;35.41;41.42;94886.00;2433219;55;25865;-54
2021/08/03 08:48:40;;;;;;;1.60;1.50;;;31.20;99.90;;;33.49;45.56;94891.00;2207941;55;26210;-54
2021/08/03 08:51:27;;;;;;;2.50;1.65;;;31.20;99.90;;;34.35;44.17;94889.00;2428137;55;26253;-55
2021/08/03 08:54:13;;;;;;;1.60;1.48;;;31.40;99.90;;;34.93;41.98;94882.00;2207113;55;25076;-54
2021/08/03 08:57:00;;;;;;;1.90;1.40;;;31.10;99.90;;;33.75;43.24;94892.00;2429262;55;25742;-54
2021/08/03 08:59:47;;;;;;;1.87;1.70;;;30.80;99.90;;;33.36;52.61;94884.00;2207325;55;25623;-54
2021/08/03 09:02:39;;;;;;;3.75;1.50;;;31.30;99.90;;;34.38;36.93;94885.00;2429119;55;25576;-54
2021/08/03 09:05:37;;;;;;;2.55;1.55;;;31.90;99.90;;;34.03;38.44;94889.00;2206976;55;25153;-53
2021/08/03 09:08:35;;;;;;;2.17;1.50;;;30.80;99.90;;;32.04;42.73;94887.00;2207657;55;25761;-54
2021/08/03 09:11:23;;;;;;;2.87;1.55;;;29.50;99.90;;;30.41;43.23;94880.00;2207307;55;25794;-53
2021/08/03 09:14:09;;;;;;;4.68;1.67;;;28.20;99.90;;;29.56;47.97;94882.00;2207484;55;25083;-54
2021/08/03 09:16:55;;;;;;;2.42;1.70;;;28.00;99.90;;;29.80;48.50;94875.00;2204972;55;25276;-53
2021/08/03 09:19:43;;;;;;;1.50;1.40;;;28.30;99.90;;;31.01;53.65;94872.00;2205563;55;25148;-54
2021/08/03 09:25:26;;;;;;;1.92;1.55;;;28.70;99.90;;;31.17;46.56;94859.00;2454368;55;33650;-56
2021/08/03 09:28:12;;;;;;;1.85;1.52;;;28.80;99.90;;;31.22;44.69;94854.00;2463250;55;26120;-55
2021/08/03 09:30:58;;;;;;;2.22;1.37;;;29.10;99.90;;;31.70;45.50;94857.00;2236716;56;25650;-54
2021/08/03 09:33:49;;;;;;;2.33;1.58;;;28.70;99.90;;;31.42;46.33;94862.00;2464266;54;25159;-54
2021/08/03 09:40:01;;;;;;;1.67;1.52;;;29.30;99.90;;;31.33;46.28;94860.00;2391231;55;33151;-55
2021/08/03 09:43:03;;;;;;;1.85;1.60;;;28.50;99.90;;;30.00;50.85;94864.00;2163602;56;26634;-55
2021/08/03 09:46:00;;;;;;;1.80;1.60;;;27.00;99.90;;;28.14;50.00;94857.00;2164269;56;25124;-54
2021/08/03 09:51:43;;;;;;;1.70;1.60;;;26.20;99.90;;;26.21;70.62;94853.00;2406698;55;32832;-54
2021/08/03 09:54:30;;;;;;;1.65;1.48;;;24.90;99.90;;;25.63;93.51;94859.00;2180385;56;26682;-55
2021/08/03 09:57:24;;;;;;;2.97;1.55;;;25.30;99.90;;;26.67;82.90;94851.00;2400898;56;27265;-54
2021/08/03 10:00:34;;;;;;;1.60;1.50;;;26.30;99.90;;;27.90;70.05;94849.00;2184099;56;26830;-55
2021/08/03 10:03:23;;;;;;;1.50;1.37;;;26.40;99.90;;;27.75;61.36;94840.00;2175326;56;27423;-53
2021/08/03 10:06:10;;;;;;;2.22;1.50;;;26.30;99.90;;;27.39;69.91;94842.00;2403218;56;26708;-52
2021/08/03 10:08:58;;;;;;;1.73;1.40;;;26.50;99.90;;;27.72;64.47;94843.00;2208413;55;27314;-52
2021/08/03 10:11:45;;;;;;;1.58;1.40;;;26.10;99.90;;;27.10;65.59;94841.00;2210054;56;25798;-52
2021/08/03 10:14:31;;;;;;;2.55;1.70;;;26.40;99.90;;;27.69;65.32;94843.00;2438520;55;27258;-53
2021/08/03 10:17:19;;;;;;;2.28;1.50;;;26.30;99.90;;;27.27;72.28;94839.00;2214743;56;27188;-54
2021/08/03 10:20:10;;;;;;;1.60;1.50;;;26.20;99.90;;;27.44;76.60;94847.00;2438186;55;25246;-54
2021/08/03 10:23:03;;;;;;;2.00;1.80;;;26.30;99.90;;;27.58;66.71;94839.00;2215542;56;26819;-53
2021/08/03 10:25:50;;;;;;;2.05;1.80;;;26.20;99.90;;;28.12;66.91;94829.00;2214911;56;25703;-52
2021/08/03 10:28:36;;;;;;;3.35;1.87;;;26.30;99.90;;;27.28;75.09;94835.00;2214198;56;27274;-53
2021/08/03 10:31:40;;;;;;;2.05;1.70;;;26.30;99.90;;;27.93;76.63;94836.00;2438036;55;25076;-53
2021/08/03 10:38:16;;;;;;;2.15;1.70;;;26.00;99.90;;;27.35;70.95;94816.00;2398056;55;33944;-55
2021/08/03 10:41:08;;;;;;;2.10;1.73;;;26.80;99.90;;;28.38;71.00;94827.00;2358688;56;26647;-56
2021/08/03 10:43:55;;;;;;;2.12;1.70;;;27.30;99.90;;;28.57;64.72;94825.00;2148082;56;25156;-55
2021/08/03 10:46:42;;;;;;;1.65;1.55;;;27.30;99.90;;;28.54;72.34;94827.00;2368727;55;27537;-54
2021/08/03 10:52:54;;;;;;;1.80;1.70;;;27.10;99.90;;;28.52;69.84;94819.00;2363735;55;34315;-55
2021/08/03 10:55:44;;;;;;;1.62;1.50;;;27.30;99.90;;;28.55;69.18;94824.00;2128054;57;25691;-54
2021/08/03 10:58:30;;;;;;;1.62;1.52;;;27.10;99.90;;;28.27;71.65;94810.00;2349820;56;26550;-55
2021/08/03 11:01:44;;;;;;;1.62;1.52;;;27.10;99.90;;;28.42;78.55;94812.00;2140454;56;27291;-55
2021/08/03 11:07:54;;;;;;;1.73;1.50;;;26.90;99.90;;;28.12;63.15;94799.00;2392333;55;33915;-55
2021/08/03 11:10:40;;;;;;;1.77;1.60;;;26.60;99.90;;;28.22;69.25;94807.00;2343030;56;27183;-54
2021/08/03 11:13:45;;;;;;;2.28;1.60;;;27.00;99.90;;;28.46;68.85;94804.00;2150024;56;25128;-54
2021/08/03 11:16:47;;;;;;;1.60;1.50;;;26.70;99.90;;;27.68;70.63;94807.00;2164458;56;26577;-56
2021/08/03 11:19:35;;;;;;;1.70;1.50;;;26.20;99.90;;;27.37;74.73;94800.00;2395493;56;26681;-55
2021/08/03 11:22:52;;;;;;;2.78;1.90;;;26.50;99.90;;;27.60;72.35;94794.00;2188432;56;26592;-55
2021/08/03 11:25:39;;;;;;;1.90;1.67;;;26.80;99.90;;;28.01;80.79;94794.00;2406912;56;27265;-55
2021/08/03 11:28:26;;;;;;;1.60;1.50;;;26.80;99.90;;;28.04;73.09;94794.00;2187646;57;25504;-55
2021/08/03 11:31:12;;;;;;;2.75;1.60;;;26.80;99.90;;;28.10;84.80;94793.00;2406521;56;27693;-56
2021/08/03 11:33:58;;;;;;;2.33;1.55;;;26.50;99.90;;;27.73;75.91;94788.00;2407563;56;26910;-55
2021/08/03 11:37:19;;;;;;;1.50;1.40;;;26.50;99.90;;;27.78;80.77;94794.00;2188249;57;26981;-55
2021/08/03 11:40:09;;;;;;;2.30;1.75;;;26.60;99.90;;;27.74;82.84;94787.00;2407062;56;26860;-55
2021/08/03 11:42:58;;;;;;;1.90;1.70;;;26.50;99.90;;;27.65;71.66;94770.00;2188222;57;26149;-55
2021/08/03 11:45:45;;;;;;;1.80;1.70;;;27.10;99.90;;;28.30;79.96;94777.00;2144463;57;25810;-56
2021/08/03 11:51:38;;;;;;;3.00;1.80;;;27.00;99.90;;;27.86;84.12;94768.00;2509557;53;33204;-55
2021/08/03 11:54:24;;;;;;;1.95;1.70;;;27.10;99.90;;;27.60;73.62;94770.00;2263206;54;26896;-55
2021/08/03 11:57:26;;;;;;;1.80;1.60;;;27.10;99.90;;;27.74;80.42;94766.00;2264397;53;26699;-55
2021/08/03 12:00:21;;;;;;;1.98;1.65;;;26.90;99.90;;;27.43;80.65;94761.00;2290235;53;26654;-54
2021/08/03 12:03:08;;;;;;;3.30;1.55;;;26.40;99.90;;;26.74;64.01;94752.00;2264515;53;27212;-55
2021/08/03 12:05:55;;;;;;;1.45;1.35;;;26.70;99.90;;;27.30;63.95;94754.00;2263634;53;27156;-55
2021/08/03 12:08:43;;;;;;;1.50;1.20;;;26.50;99.90;;;27.16;55.65;94749.00;2498147;53;26622;-55
2021/08/03 12:11:30;;;;;;;1.60;1.50;;;27.00;99.90;;;27.77;78.16;94751.00;2263623;53;26824;-55
2021/08/03 12:14:17;;;;;;;2.42;1.60;;;27.50;99.90;;;28.31;58.50;94753.00;2497791;53;26119;-55
2021/08/03 12:17:04;;;;;;;1.67;1.58;;;26.80;99.90;;;27.15;60.96;94741.00;2263516;53;26737;-55
2021/08/03 12:19:50;;;;;;;1.70;1.55;;;26.30;99.90;;;26.45;62.52;94746.00;2498173;53;26696;-55
2021/08/03 12:22:36;;;;;;;1.50;1.40;;;25.90;99.90;;;26.41;82.01;94744.00;2263560;53;27172;-54
2021/08/03 12:25:25;;;;;;;2.00;1.60;;;26.00;99.90;;;27.13;72.15;94751.00;2497729;53;26650;-55
2021/08/03 12:28:12;;;;;;;2.37;1.62;;;26.00;99.90;;;26.92;64.47;94748.00;2263325;53;26864;-55
2021/08/03 12:31:12;;;;;;;1.70;1.55;;;25.90;99.90;;;26.91;76.38;94744.00;2498112;53;26720;-55
2021/08/03 12:34:13;;;;;;;1.65;1.37;;;25.40;99.90;;;26.26;62.79;94742.00;2498672;53;26850;-54
2021/08/03 12:36:59;;;;;;;1.50;1.37;;;24.90;99.90;;;25.69;66.78;94745.00;2264661;53;26609;-55
2021/08/03 12:39:48;;;;;;;1.50;1.40;;;24.70;99.90;;;25.68;77.69;94740.00;2498364;53;26568;-55
2021/08/03 12:42:48;;;;;;;1.70;1.50;;;24.60;99.90;;;25.48;71.77;94736.00;2263353;53;26705;-55
2021/08/03 12:45:38;;;;;;;2.95;1.70;;;24.50;99.90;;;25.56;76.41;94733.00;2263793;53;26752;-55
2021/08/03 12:48:24;;;;;;;1.67;1.40;;;24.50;99.90;;;25.42;79.95;94734.00;2497261;53;26935;-56
2021/08/03 12:51:26;;;;;;;2.12;1.40;;;24.60;99.90;;;25.72;83.55;94720.00;2263308;53;26682;-55
2021/08/03 12:57:12;;;;;;;2.40;1.50;;;24.80;99.90;;;26.00;90.94;94730.00;2370225;55;34348;-55
2021/08/03 12:59:58;;;;;;;1.50;1.30;;;25.60;99.90;;;26.85;75.26;94729.00;2136052;57;26593;-55
2021/08/03 13:02:45;;;;;;;1.77;1.27;;;26.00;99.90;;;26.70;61.62;94726.00;2344198;57;27167;-55
2021/08/03 13:05:31;;;;;;;1.95;1.48;;;25.90;99.90;;;26.45;62.49;94724.00;2116520;57;26916;-53